Terminal Aerodrome Forecast
Issued by NWS Cleveland, OH

Home | Current Version | Previous Version | Text Only | Print | Product List | Glossary Off
Versions: 1 2 3 4 5 6 7 8 9 10 11 12 13 14 15 16

000
FTUS41 KCLE 282329
TAFCAK
TAF
KCAK 282329Z 2900/2924 14010KT P6SM VCSH SCT050 OVC150
     FM290100 36004KT P6SM SCT150 BKN200
     FM290800 02005KT 6SM BR FEW008
      TEMPO 2910/2913 2SM BR BKN008
     FM291400 02008KT P6SM FEW050=

USA.gov is the U.S. government's official web portal to all federal, state and local government web resources and services.